sensor_id;sensor_type;location;lat;lon;timestamp;temperature;humidity
75321;DHT22;68337;52.196;5.660;2023-11-21T00:00:16;5.50;99.90
75321;DHT22;68337;52.196;5.660;2023-11-21T00:02:44;5.50;99.90
75321;DHT22;68337;52.196;5.660;2023-11-21T00:05:13;5.50;99.90
75321;DHT22;68337;52.196;5.660;2023-11-21T00:07:40;5.60;99.90
75321;DHT22;68337;52.196;5.660;2023-11-21T00:10:07;5.60;99.90
75321;DHT22;68337;52.196;5.660;2023-11-21T00:12:37;5.60;99.90
75321;DHT22;68337;52.196;5.660;2023-11-21T00:15:03;5.60;99.90
75321;DHT22;68337;52.196;5.660;2023-11-21T00:17:31;5.70;99.90
75321;DHT22;68337;52.196;5.660;2023-11-21T00:19:56;5.60;99.90
75321;DHT22;68337;52.196;5.660;2023-11-21T00:22:22;5.60;99.90
75321;DHT22;68337;52.196;5.660;2023-11-21T00:24:48;5.60;99.90
75321;DHT22;68337;52.196;5.660;2023-11-21T00:27:13;5.60;99.90
75321;DHT22;68337;52.196;5.660;2023-11-21T00:29:40;5.60;99.90
75321;DHT22;68337;52.196;5.660;2023-11-21T00:32:06;5.60;99.90
75321;DHT22;68337;52.196;5.660;2023-11-21T00:34:32;5.60;99.90
75321;DHT22;68337;52.196;5.660;2023-11-21T00:36:58;5.60;99.90
75321;DHT22;68337;52.196;5.660;2023-11-21T00:39:24;5.70;99.90
75321;DHT22;68337;52.196;5.660;2023-11-21T00:41:51;5.70;99.90
75321;DHT22;68337;52.196;5.660;2023-11-21T00:44:17;5.70;99.90
75321;DHT22;68337;52.196;5.660;2023-11-21T00:46:43;5.80;99.90
75321;DHT22;68337;52.196;5.660;2023-11-21T00:49:08;5.80;99.90
75321;DHT22;68337;52.196;5.660;2023-11-21T00:51:37;5.80;99.90
75321;DHT22;68337;52.196;5.660;2023-11-21T00:54:03;5.80;99.90
75321;DHT22;68337;52.196;5.660;2023-11-21T00:56:28;5.90;99.90
75321;DHT22;68337;52.196;5.660;2023-11-21T00:58:54;6.20;99.90
75321;DHT22;68337;52.196;5.660;2023-11-21T01:01:20;5.90;99.90
75321;DHT22;68337;52.196;5.660;2023-11-21T01:03:48;6.00;99.90
75321;DHT22;68337;52.196;5.660;2023-11-21T01:06:15;5.90;99.90
75321;DHT22;68337;52.196;5.660;2023-11-21T01:08:41;6.00;99.90
75321;DHT22;68337;52.196;5.660;2023-11-21T01:11:06;6.00;99.90
75321;DHT22;68337;52.196;5.660;2023-11-21T01:13:38;5.90;99.90
75321;DHT22;68337;52.196;5.660;2023-11-21T01:16:05;6.00;99.90
75321;DHT22;68337;52.196;5.660;2023-11-21T01:18:32;6.10;99.90
75321;DHT22;68337;52.196;5.660;2023-11-21T01:20:57;6.10;99.90
75321;DHT22;68337;52.196;5.660;2023-11-21T01:23:23;6.10;99.90
75321;DHT22;68337;52.196;5.660;2023-11-21T01:25:49;6.10;99.90
75321;DHT22;68337;52.196;5.660;2023-11-21T01:28:17;6.10;99.90
75321;DHT22;68337;52.196;5.660;2023-11-21T01:30:42;6.10;99.90
75321;DHT22;68337;52.196;5.660;2023-11-21T01:33:08;6.20;99.90
75321;DHT22;68337;52.196;5.660;2023-11-21T01:35:34;6.20;99.90
75321;DHT22;68337;52.196;5.660;2023-11-21T01:38:00;6.20;99.90
75321;DHT22;68337;52.196;5.660;2023-11-21T01:40:25;6.20;99.90
75321;DHT22;68337;52.196;5.660;2023-11-21T01:42:53;6.20;99.90
75321;DHT22;68337;52.196;5.660;2023-11-21T01:45:19;6.20;99.90
75321;DHT22;68337;52.196;5.660;2023-11-21T01:47:45;6.20;99.90
75321;DHT22;68337;52.196;5.660;2023-11-21T01:50:15;6.20;99.90
75321;DHT22;68337;52.196;5.660;2023-11-21T01:52:46;6.20;99.90
75321;DHT22;68337;52.196;5.660;2023-11-21T01:55:15;6.20;99.90
75321;DHT22;68337;52.196;5.660;2023-11-21T01:57:43;6.20;99.90
75321;DHT22;68337;52.196;5.660;2023-11-21T02:00:10;6.30;99.90
75321;DHT22;68337;52.196;5.660;2023-11-21T02:02:45;6.30;99.90
75321;DHT22;68337;52.196;5.660;2023-11-21T02:05:13;6.30;99.90
75321;DHT22;68337;52.196;5.660;2023-11-21T02:07:40;6.30;99.90
75321;DHT22;68337;52.196;5.660;2023-11-21T02:10:07;6.20;99.90
75321;DHT22;68337;52.196;5.660;2023-11-21T02:12:33;6.30;99.90
75321;DHT22;68337;52.196;5.660;2023-11-21T02:15:02;6.30;99.90
75321;DHT22;68337;52.196;5.660;2023-11-21T02:17:28;6.30;99.90
75321;DHT22;68337;52.196;5.660;2023-11-21T02:19:54;6.30;99.90
75321;DHT22;68337;52.196;5.660;2023-11-21T02:22:20;6.30;99.90
75321;DHT22;68337;52.196;5.660;2023-11-21T02:24:46;6.40;99.90
75321;DHT22;68337;52.196;5.660;2023-11-21T02:27:14;6.40;99.90
75321;DHT22;68337;52.196;5.660;2023-11-21T02:29:46;6.40;99.90
75321;DHT22;68337;52.196;5.660;2023-11-21T02:32:11;6.50;99.90
75321;DHT22;68337;52.196;5.660;2023-11-21T02:34:37;6.50;99.90
75321;DHT22;68337;52.196;5.660;2023-11-21T02:37:03;6.60;99.90
75321;DHT22;68337;52.196;5.660;2023-11-21T02:39:29;6.60;99.90
75321;DHT22;68337;52.196;5.660;2023-11-21T02:41:54;6.70;99.90
75321;DHT22;68337;52.196;5.660;2023-11-21T02:44:20;6.70;99.90
75321;DHT22;68337;52.196;5.660;2023-11-21T02:46:46;6.70;99.90
75321;DHT22;68337;52.196;5.660;2023-11-21T02:49:12;6.70;99.90
75321;DHT22;68337;52.196;5.660;2023-11-21T02:51:38;6.70;99.90
75321;DHT22;68337;52.196;5.660;2023-11-21T02:54:05;6.80;99.90
75321;DHT22;68337;52.196;5.660;2023-11-21T02:56:32;6.80;99.90
75321;DHT22;68337;52.196;5.660;2023-11-21T02:58:59;6.80;99.90
75321;DHT22;68337;52.196;5.660;2023-11-21T03:01:26;6.90;99.90
75321;DHT22;68337;52.196;5.660;2023-11-21T03:03:52;6.80;99.90
75321;DHT22;68337;52.196;5.660;2023-11-21T03:06:21;6.80;99.90
75321;DHT22;68337;52.196;5.660;2023-11-21T03:08:47;6.80;99.90
75321;DHT22;68337;52.196;5.660;2023-11-21T03:11:13;6.80;99.90
75321;DHT22;68337;52.196;5.660;2023-11-21T03:13:42;6.90;99.90
75321;DHT22;68337;52.196;5.660;2023-11-21T03:16:11;6.90;99.90
75321;DHT22;68337;52.196;5.660;2023-11-21T03:18:38;6.90;99.90
75321;DHT22;68337;52.196;5.660;2023-11-21T03:21:06;6.90;99.90
75321;DHT22;68337;52.196;5.660;2023-11-21T03:23:36;7.00;99.90
75321;DHT22;68337;52.196;5.660;2023-11-21T03:26:02;7.00;99.90
75321;DHT22;68337;52.196;5.660;2023-11-21T03:28:28;7.00;99.90
75321;DHT22;68337;52.196;5.660;2023-11-21T03:30:55;7.00;99.90
75321;DHT22;68337;52.196;5.660;2023-11-21T03:33:21;7.00;99.90
75321;DHT22;68337;52.196;5.660;2023-11-21T03:35:48;7.10;99.90
75321;DHT22;68337;52.196;5.660;2023-11-21T03:38:14;7.10;99.90
75321;DHT22;68337;52.196;5.660;2023-11-21T03:40:41;7.00;99.90
75321;DHT22;68337;52.196;5.660;2023-11-21T03:43:07;7.10;99.90
75321;DHT22;68337;52.196;5.660;2023-11-21T03:45:32;7.10;99.90
75321;DHT22;68337;52.196;5.660;2023-11-21T03:47:58;7.00;99.90
75321;DHT22;68337;52.196;5.660;2023-11-21T03:50:28;7.10;99.90
75321;DHT22;68337;52.196;5.660;2023-11-21T03:52:54;7.10;99.90
75321;DHT22;68337;52.196;5.660;2023-11-21T03:55:19;7.10;99.90
75321;DHT22;68337;52.196;5.660;2023-11-21T03:57:45;7.10;99.90
75321;DHT22;68337;52.196;5.660;2023-11-21T04:00:11;7.10;99.90
75321;DHT22;68337;52.196;5.660;2023-11-21T04:02:37;7.20;99.90
75321;DHT22;68337;52.196;5.660;2023-11-21T04:05:03;7.20;99.90
75321;DHT22;68337;52.196;5.660;2023-11-21T04:07:29;7.20;99.90
75321;DHT22;68337;52.196;5.660;2023-11-21T04:09:54;7.30;99.90
75321;DHT22;68337;52.196;5.660;2023-11-21T04:12:20;7.30;99.90
75321;DHT22;68337;52.196;5.660;2023-11-21T04:14:46;7.30;99.90
75321;DHT22;68337;52.196;5.660;2023-11-21T04:17:11;7.30;99.90
75321;DHT22;68337;52.196;5.660;2023-11-21T04:19:37;7.30;99.90
75321;DHT22;68337;52.196;5.660;2023-11-21T04:22:03;7.40;99.90
75321;DHT22;68337;52.196;5.660;2023-11-21T04:24:29;7.40;99.90
75321;DHT22;68337;52.196;5.660;2023-11-21T04:26:55;7.40;99.90
75321;DHT22;68337;52.196;5.660;2023-11-21T04:29:21;7.40;99.90
75321;DHT22;68337;52.196;5.660;2023-11-21T04:31:46;7.50;99.90
75321;DHT22;68337;52.196;5.660;2023-11-21T04:34:14;7.50;99.90
75321;DHT22;68337;52.196;5.660;2023-11-21T04:36:40;7.50;99.90
75321;DHT22;68337;52.196;5.660;2023-11-21T04:39:06;7.50;99.90
75321;DHT22;68337;52.196;5.660;2023-11-21T04:41:32;7.60;99.90
75321;DHT22;68337;52.196;5.660;2023-11-21T04:43:58;7.60;99.90
75321;DHT22;68337;52.196;5.660;2023-11-21T04:46:26;7.60;99.90
75321;DHT22;68337;52.196;5.660;2023-11-21T04:48:52;7.60;99.90
75321;DHT22;68337;52.196;5.660;2023-11-21T04:51:17;7.60;99.90
75321;DHT22;68337;52.196;5.660;2023-11-21T04:53:43;7.60;99.90
75321;DHT22;68337;52.196;5.660;2023-11-21T04:56:09;7.70;99.90
75321;DHT22;68337;52.196;5.660;2023-11-21T04:58:35;7.70;99.90
75321;DHT22;68337;52.196;5.660;2023-11-21T05:01:01;7.70;99.90
75321;DHT22;68337;52.196;5.660;2023-11-21T05:03:26;7.70;99.90
75321;DHT22;68337;52.196;5.660;2023-11-21T05:05:52;7.70;99.90
75321;DHT22;68337;52.196;5.660;2023-11-21T05:08:18;7.80;99.90
75321;DHT22;68337;52.196;5.660;2023-11-21T05:10:45;7.80;99.90
75321;DHT22;68337;52.196;5.660;2023-11-21T05:13:11;7.80;99.90
75321;DHT22;68337;52.196;5.660;2023-11-21T05:15:37;7.80;99.90
75321;DHT22;68337;52.196;5.660;2023-11-21T05:18:04;7.80;99.90
75321;DHT22;68337;52.196;5.660;2023-11-21T05:20:30;7.80;99.90
75321;DHT22;68337;52.196;5.660;2023-11-21T05:22:56;7.90;99.90
75321;DHT22;68337;52.196;5.660;2023-11-21T05:25:22;7.90;99.90
75321;DHT22;68337;52.196;5.660;2023-11-21T05:27:48;7.90;99.90
75321;DHT22;68337;52.196;5.660;2023-11-21T05:30:14;7.90;99.90
75321;DHT22;68337;52.196;5.660;2023-11-21T05:32:40;7.90;99.90
75321;DHT22;68337;52.196;5.660;2023-11-21T05:35:09;8.00;99.90
75321;DHT22;68337;52.196;5.660;2023-11-21T05:37:39;8.00;99.90
75321;DHT22;68337;52.196;5.660;2023-11-21T05:40:06;8.00;99.90
75321;DHT22;68337;52.196;5.660;2023-11-21T05:42:33;8.00;99.90
75321;DHT22;68337;52.196;5.660;2023-11-21T05:44:59;8.10;99.90
75321;DHT22;68337;52.196;5.660;2023-11-21T05:47:39;8.10;99.90
75321;DHT22;68337;52.196;5.660;2023-11-21T05:50:07;8.10;99.90
75321;DHT22;68337;52.196;5.660;2023-11-21T05:52:36;8.20;99.90
75321;DHT22;68337;52.196;5.660;2023-11-21T05:55:02;8.20;99.90
75321;DHT22;68337;52.196;5.660;2023-11-21T05:57:30;8.20;99.90
75321;DHT22;68337;52.196;5.660;2023-11-21T05:59:56;8.20;99.90
75321;DHT22;68337;52.196;5.660;2023-11-21T06:02:21;8.20;99.90
75321;DHT22;68337;52.196;5.660;2023-11-21T06:04:47;8.30;99.90
75321;DHT22;68337;52.196;5.660;2023-11-21T06:07:12;8.30;99.90
75321;DHT22;68337;52.196;5.660;2023-11-21T06:09:38;8.40;99.90
75321;DHT22;68337;52.196;5.660;2023-11-21T06:12:04;8.40;99.90
75321;DHT22;68337;52.196;5.660;2023-11-21T06:14:31;8.40;99.90
75321;DHT22;68337;52.196;5.660;2023-11-21T06:16:58;8.40;99.90
75321;DHT22;68337;52.196;5.660;2023-11-21T06:19:24;8.40;99.90
75321;DHT22;68337;52.196;5.660;2023-11-21T06:21:50;8.40;99.90
75321;DHT22;68337;52.196;5.660;2023-11-21T06:24:16;8.40;99.90
75321;DHT22;68337;52.196;5.660;2023-11-21T06:26:42;8.40;99.90
75321;DHT22;68337;52.196;5.660;2023-11-21T06:29:09;8.50;99.90
75321;DHT22;68337;52.196;5.660;2023-11-21T06:31:36;8.50;99.90
75321;DHT22;68337;52.196;5.660;2023-11-21T06:34:02;8.50;99.90
75321;DHT22;68337;52.196;5.660;2023-11-21T06:36:28;8.50;99.90
75321;DHT22;68337;52.196;5.660;2023-11-21T06:38:54;8.50;99.90
75321;DHT22;68337;52.196;5.660;2023-11-21T06:41:20;8.50;99.90
75321;DHT22;68337;52.196;5.660;2023-11-21T06:43:46;8.50;99.90
75321;DHT22;68337;52.196;5.660;2023-11-21T06:46:12;8.60;99.90
75321;DHT22;68337;52.196;5.660;2023-11-21T06:48:44;8.50;99.90
75321;DHT22;68337;52.196;5.660;2023-11-21T06:51:10;8.60;99.90
75321;DHT22;68337;52.196;5.660;2023-11-21T06:53:37;8.60;99.90
75321;DHT22;68337;52.196;5.660;2023-11-21T06:56:03;8.60;99.90
75321;DHT22;68337;52.196;5.660;2023-11-21T06:58:29;8.60;99.90
75321;DHT22;68337;52.196;5.660;2023-11-21T07:00:54;8.60;99.90
75321;DHT22;68337;52.196;5.660;2023-11-21T07:03:20;8.60;99.90
75321;DHT22;68337;52.196;5.660;2023-11-21T07:05:46;8.70;99.90
75321;DHT22;68337;52.196;5.660;2023-11-21T07:08:11;8.70;99.90
75321;DHT22;68337;52.196;5.660;2023-11-21T07:10:38;8.60;99.90
75321;DHT22;68337;52.196;5.660;2023-11-21T07:13:04;8.70;99.90
75321;DHT22;68337;52.196;5.660;2023-11-21T07:15:29;8.70;99.90
75321;DHT22;68337;52.196;5.660;2023-11-21T07:17:55;8.60;99.90
75321;DHT22;68337;52.196;5.660;2023-11-21T07:20:21;8.70;99.90
75321;DHT22;68337;52.196;5.660;2023-11-21T07:22:47;8.60;99.90
75321;DHT22;68337;52.196;5.660;2023-11-21T07:25:12;8.70;99.90
75321;DHT22;68337;52.196;5.660;2023-11-21T07:27:38;8.70;99.90
75321;DHT22;68337;52.196;5.660;2023-11-21T07:30:04;8.70;99.90
75321;DHT22;68337;52.196;5.660;2023-11-21T07:32:31;8.70;99.90
75321;DHT22;68337;52.196;5.660;2023-11-21T07:34:57;8.70;99.90
75321;DHT22;68337;52.196;5.660;2023-11-21T07:37:25;8.70;99.90
75321;DHT22;68337;52.196;5.660;2023-11-21T07:39:54;8.70;99.90
75321;DHT22;68337;52.196;5.660;2023-11-21T07:42:23;8.70;99.90
75321;DHT22;68337;52.196;5.660;2023-11-21T07:44:52;8.80;99.90
75321;DHT22;68337;52.196;5.660;2023-11-21T07:47:17;8.70;99.90
75321;DHT22;68337;52.196;5.660;2023-11-21T07:49:43;8.70;99.90
75321;DHT22;68337;52.196;5.660;2023-11-21T07:52:10;8.80;99.90
75321;DHT22;68337;52.196;5.660;2023-11-21T07:54:36;8.80;99.90
75321;DHT22;68337;52.196;5.660;2023-11-21T07:57:02;8.80;99.90
75321;DHT22;68337;52.196;5.660;2023-11-21T07:59:29;8.80;99.90
75321;DHT22;68337;52.196;5.660;2023-11-21T08:01:55;8.80;99.90
75321;DHT22;68337;52.196;5.660;2023-11-21T08:04:21;8.80;99.90
75321;DHT22;68337;52.196;5.660;2023-11-21T08:06:46;8.90;99.90
75321;DHT22;68337;52.196;5.660;2023-11-21T08:09:12;8.90;99.90
75321;DHT22;68337;52.196;5.660;2023-11-21T08:11:38;8.90;99.90
75321;DHT22;68337;52.196;5.660;2023-11-21T08:14:05;9.00;99.90
75321;DHT22;68337;52.196;5.660;2023-11-21T08:16:30;9.00;99.90
75321;DHT22;68337;52.196;5.660;2023-11-21T08:18:56;9.00;99.90
75321;DHT22;68337;52.196;5.660;2023-11-21T08:21:22;9.10;99.90
75321;DHT22;68337;52.196;5.660;2023-11-21T08:23:52;9.10;99.90
75321;DHT22;68337;52.196;5.660;2023-11-21T08:26:20;9.10;99.90
75321;DHT22;68337;52.196;5.660;2023-11-21T08:28:46;9.20;99.90
75321;DHT22;68337;52.196;5.660;2023-11-21T08:31:12;9.20;99.90
75321;DHT22;68337;52.196;5.660;2023-11-21T08:33:38;9.20;99.90
75321;DHT22;68337;52.196;5.660;2023-11-21T08:36:10;9.20;99.90
75321;DHT22;68337;52.196;5.660;2023-11-21T08:38:37;9.20;99.90
75321;DHT22;68337;52.196;5.660;2023-11-21T08:41:05;9.30;99.90
75321;DHT22;68337;52.196;5.660;2023-11-21T08:43:36;9.30;99.90
75321;DHT22;68337;52.196;5.660;2023-11-21T08:46:08;9.30;99.90
75321;DHT22;68337;52.196;5.660;2023-11-21T08:48:36;9.30;99.90
75321;DHT22;68337;52.196;5.660;2023-11-21T08:51:02;9.40;99.90
75321;DHT22;68337;52.196;5.660;2023-11-21T08:53:29;9.40;99.90
75321;DHT22;68337;52.196;5.660;2023-11-21T08:55:56;9.50;99.90
75321;DHT22;68337;52.196;5.660;2023-11-21T08:58:22;9.50;99.90
75321;DHT22;68337;52.196;5.660;2023-11-21T09:00:48;9.60;99.90
75321;DHT22;68337;52.196;5.660;2023-11-21T09:03:13;9.60;99.90
75321;DHT22;68337;52.196;5.660;2023-11-21T09:05:39;9.70;99.90
75321;DHT22;68337;52.196;5.660;2023-11-21T09:08:05;9.80;99.90
75321;DHT22;68337;52.196;5.660;2023-11-21T09:10:35;9.90;99.90
75321;DHT22;68337;52.196;5.660;2023-11-21T09:13:04;10.00;99.90
75321;DHT22;68337;52.196;5.660;2023-11-21T09:15:30;10.00;99.90
75321;DHT22;68337;52.196;5.660;2023-11-21T09:17:56;10.10;99.90
75321;DHT22;68337;52.196;5.660;2023-11-21T09:20:22;10.20;99.90
75321;DHT22;68337;52.196;5.660;2023-11-21T09:22:49;10.30;99.90
75321;DHT22;68337;52.196;5.660;2023-11-21T09:25:15;10.30;99.90
75321;DHT22;68337;52.196;5.660;2023-11-21T09:27:41;10.30;99.90
75321;DHT22;68337;52.196;5.660;2023-11-21T09:30:07;10.30;99.90
75321;DHT22;68337;52.196;5.660;2023-11-21T09:32:37;10.30;99.90
75321;DHT22;68337;52.196;5.660;2023-11-21T09:35:06;10.30;99.90
75321;DHT22;68337;52.196;5.660;2023-11-21T09:37:35;10.30;99.90
75321;DHT22;68337;52.196;5.660;2023-11-21T09:40:01;10.20;99.90
75321;DHT22;68337;52.196;5.660;2023-11-21T09:42:39;10.20;99.90
75321;DHT22;68337;52.196;5.660;2023-11-21T09:47:39;10.20;99.90
75321;DHT22;68337;52.196;5.660;2023-11-21T09:50:06;10.20;99.90
75321;DHT22;68337;52.196;5.660;2023-11-21T09:55:23;10.30;99.90
75321;DHT22;68337;52.196;5.660;2023-11-21T09:57:52;10.20;99.90
75321;DHT22;68337;52.196;5.660;2023-11-21T10:00:19;10.10;99.90
75321;DHT22;68337;52.196;5.660;2023-11-21T10:02:49;10.20;99.90
75321;DHT22;68337;52.196;5.660;2023-11-21T10:05:16;10.20;99.90
75321;DHT22;68337;52.196;5.660;2023-11-21T10:07:43;10.20;99.90
75321;DHT22;68337;52.196;5.660;2023-11-21T10:10:10;10.20;99.90
75321;DHT22;68337;52.196;5.660;2023-11-21T10:12:37;10.20;99.90
75321;DHT22;68337;52.196;5.660;2023-11-21T10:15:07;10.10;99.90
75321;DHT22;68337;52.196;5.660;2023-11-21T10:17:35;10.20;99.90
75321;DHT22;68337;52.196;5.660;2023-11-21T10:20:09;10.20;99.90
75321;DHT22;68337;52.196;5.660;2023-11-21T10:22:45;10.10;99.90
75321;DHT22;68337;52.196;5.660;2023-11-21T10:25:12;10.10;99.90
75321;DHT22;68337;52.196;5.660;2023-11-21T10:27:41;10.10;99.90
75321;DHT22;68337;52.196;5.660;2023-11-21T10:30:09;10.10;99.90
75321;DHT22;68337;52.196;5.660;2023-11-21T10:32:42;10.10;99.90
75321;DHT22;68337;52.196;5.660;2023-11-21T10:35:09;10.10;99.90
75321;DHT22;68337;52.196;5.660;2023-11-21T10:37:40;10.10;99.90
75321;DHT22;68337;52.196;5.660;2023-11-21T10:40:07;10.10;99.90
75321;DHT22;68337;52.196;5.660;2023-11-21T10:42:34;10.20;99.90
75321;DHT22;68337;52.196;5.660;2023-11-21T10:45:00;10.20;99.90
75321;DHT22;68337;52.196;5.660;2023-11-21T10:47:26;10.20;99.90
75321;DHT22;68337;52.196;5.660;2023-11-21T10:49:52;10.10;99.90
75321;DHT22;68337;52.196;5.660;2023-11-21T10:52:21;10.10;99.90
75321;DHT22;68337;52.196;5.660;2023-11-21T10:54:49;10.10;99.90
75321;DHT22;68337;52.196;5.660;2023-11-21T10:57:18;10.10;99.90
75321;DHT22;68337;52.196;5.660;2023-11-21T10:59:47;10.10;99.90
75321;DHT22;68337;52.196;5.660;2023-11-21T11:02:24;10.10;99.90
75321;DHT22;68337;52.196;5.660;2023-11-21T11:04:54;10.10;99.90
75321;DHT22;68337;52.196;5.660;2023-11-21T11:07:26;10.10;99.90
75321;DHT22;68337;52.196;5.660;2023-11-21T11:09:56;10.10;99.90
75321;DHT22;68337;52.196;5.660;2023-11-21T11:12:23;10.10;99.90
75321;DHT22;68337;52.196;5.660;2023-11-21T11:14:49;10.10;99.90
75321;DHT22;68337;52.196;5.660;2023-11-21T11:17:15;10.10;99.90
75321;DHT22;68337;52.196;5.660;2023-11-21T11:19:41;10.10;99.90
75321;DHT22;68337;52.196;5.660;2023-11-21T11:33:39;10.10;99.90
75321;DHT22;68337;52.196;5.660;2023-11-21T11:38:37;10.00;99.90
75321;DHT22;68337;52.196;5.660;2023-11-21T11:41:04;10.10;99.90
75321;DHT22;68337;52.196;5.660;2023-11-21T11:43:31;10.10;99.90
75321;DHT22;68337;52.196;5.660;2023-11-21T11:46:12;10.00;99.90
75321;DHT22;68337;52.196;5.660;2023-11-21T11:48:39;10.10;99.90
75321;DHT22;68337;52.196;5.660;2023-11-21T11:51:12;10.10;99.90
75321;DHT22;68337;52.196;5.660;2023-11-21T11:53:41;10.10;99.90
75321;DHT22;68337;52.196;5.660;2023-11-21T11:56:23;10.20;99.90
75321;DHT22;68337;52.196;5.660;2023-11-21T11:58:53;10.20;99.90
75321;DHT22;68337;52.196;5.660;2023-11-21T12:01:20;10.20;99.90
75321;DHT22;68337;52.196;5.660;2023-11-21T12:04:24;10.10;99.90
75321;DHT22;68337;52.196;5.660;2023-11-21T12:06:56;10.20;99.90
75321;DHT22;68337;52.196;5.660;2023-11-21T12:09:24;10.10;99.90
75321;DHT22;68337;52.196;5.660;2023-11-21T12:11:52;10.10;99.90
75321;DHT22;68337;52.196;5.660;2023-11-21T12:14:18;10.10;99.90
75321;DHT22;68337;52.196;5.660;2023-11-21T12:16:43;10.10;99.90
75321;DHT22;68337;52.196;5.660;2023-11-21T12:19:11;10.10;99.90
75321;DHT22;68337;52.196;5.660;2023-11-21T12:21:36;10.10;99.90
75321;DHT22;68337;52.196;5.660;2023-11-21T12:24:03;10.20;99.90
75321;DHT22;68337;52.196;5.660;2023-11-21T12:26:29;10.30;99.90
75321;DHT22;68337;52.196;5.660;2023-11-21T12:28:55;10.40;99.90
75321;DHT22;68337;52.196;5.660;2023-11-21T12:31:24;10.40;99.90
75321;DHT22;68337;52.196;5.660;2023-11-21T12:33:50;10.60;99.90
75321;DHT22;68337;52.196;5.660;2023-11-21T12:36:17;10.60;99.90
75321;DHT22;68337;52.196;5.660;2023-11-21T12:38:43;10.60;99.90
75321;DHT22;68337;52.196;5.660;2023-11-21T12:41:09;10.60;99.90
75321;DHT22;68337;52.196;5.660;2023-11-21T12:43:36;10.50;99.90
75321;DHT22;68337;52.196;5.660;2023-11-21T12:46:06;10.40;99.90
75321;DHT22;68337;52.196;5.660;2023-11-21T12:48:32;10.50;99.90
75321;DHT22;68337;52.196;5.660;2023-11-21T12:50:58;10.50;99.90
75321;DHT22;68337;52.196;5.660;2023-11-21T12:53:26;10.50;99.90
75321;DHT22;68337;52.196;5.660;2023-11-21T12:55:52;10.50;99.90
75321;DHT22;68337;52.196;5.660;2023-11-21T12:58:24;10.40;99.90
75321;DHT22;68337;52.196;5.660;2023-11-21T13:00:50;10.40;99.90
75321;DHT22;68337;52.196;5.660;2023-11-21T13:03:19;10.30;99.90
75321;DHT22;68337;52.196;5.660;2023-11-21T13:05:51;10.30;99.90
75321;DHT22;68337;52.196;5.660;2023-11-21T13:08:19;10.20;99.90
75321;DHT22;68337;52.196;5.660;2023-11-21T13:10:53;10.30;99.90
75321;DHT22;68337;52.196;5.660;2023-11-21T13:13:20;10.30;99.90
75321;DHT22;68337;52.196;5.660;2023-11-21T13:18:15;10.40;99.90
75321;DHT22;68337;52.196;5.660;2023-11-21T13:20:41;10.30;99.90
75321;DHT22;68337;52.196;5.660;2023-11-21T13:23:09;10.30;99.90
75321;DHT22;68337;52.196;5.660;2023-11-21T13:25:37;10.20;99.90
75321;DHT22;68337;52.196;5.660;2023-11-21T13:28:04;10.20;99.90
75321;DHT22;68337;52.196;5.660;2023-11-21T13:30:31;10.20;99.90
75321;DHT22;68337;52.196;5.660;2023-11-21T13:33:03;10.20;99.90
75321;DHT22;68337;52.196;5.660;2023-11-21T13:35:34;10.10;99.90
75321;DHT22;68337;52.196;5.660;2023-11-21T13:38:11;10.10;99.90
75321;DHT22;68337;52.196;5.660;2023-11-21T13:40:38;10.00;99.90
75321;DHT22;68337;52.196;5.660;2023-11-21T13:43:16;10.00;99.90
75321;DHT22;68337;52.196;5.660;2023-11-21T13:45:44;9.90;99.90
75321;DHT22;68337;52.196;5.660;2023-11-21T13:48:11;9.80;99.90
75321;DHT22;68337;52.196;5.660;2023-11-21T13:50:42;9.80;99.90
75321;DHT22;68337;52.196;5.660;2023-11-21T13:53:21;9.70;99.90
75321;DHT22;68337;52.196;5.660;2023-11-21T13:55:54;9.70;99.90
75321;DHT22;68337;52.196;5.660;2023-11-21T13:58:21;9.70;99.90
75321;DHT22;68337;52.196;5.660;2023-11-21T14:01:13;9.70;99.90
75321;DHT22;68337;52.196;5.660;2023-11-21T14:04:03;9.60;99.90
75321;DHT22;68337;52.196;5.660;2023-11-21T14:06:50;9.60;99.90
75321;DHT22;68337;52.196;5.660;2023-11-21T14:09:18;9.60;99.90
75321;DHT22;68337;52.196;5.660;2023-11-21T14:12:01;9.50;99.90
75321;DHT22;68337;52.196;5.660;2023-11-21T14:14:31;9.50;99.90
75321;DHT22;68337;52.196;5.660;2023-11-21T14:16:57;9.50;99.90
75321;DHT22;68337;52.196;5.660;2023-11-21T14:19:24;9.50;99.90
75321;DHT22;68337;52.196;5.660;2023-11-21T14:21:56;9.50;99.90
75321;DHT22;68337;52.196;5.660;2023-11-21T14:24:22;9.50;99.90
75321;DHT22;68337;52.196;5.660;2023-11-21T14:26:49;9.40;99.90
75321;DHT22;68337;52.196;5.660;2023-11-21T14:29:17;9.40;99.90
75321;DHT22;68337;52.196;5.660;2023-11-21T14:31:45;9.40;99.90
75321;DHT22;68337;52.196;5.660;2023-11-21T14:34:11;9.30;99.90
75321;DHT22;68337;52.196;5.660;2023-11-21T14:36:39;9.30;99.90
75321;DHT22;68337;52.196;5.660;2023-11-21T14:39:05;9.30;99.90
75321;DHT22;68337;52.196;5.660;2023-11-21T14:41:43;9.30;99.90
75321;DHT22;68337;52.196;5.660;2023-11-21T14:44:10;9.10;99.90
75321;DHT22;68337;52.196;5.660;2023-11-21T14:46:38;9.10;99.90
75321;DHT22;68337;52.196;5.660;2023-11-21T14:49:05;9.00;99.90
75321;DHT22;68337;52.196;5.660;2023-11-21T14:51:53;9.00;99.90
75321;DHT22;68337;52.196;5.660;2023-11-21T14:54:30;8.90;99.90
75321;DHT22;68337;52.196;5.660;2023-11-21T14:57:11;8.90;99.90
75321;DHT22;68337;52.196;5.660;2023-11-21T14:59:42;8.90;99.90
75321;DHT22;68337;52.196;5.660;2023-11-21T15:02:08;8.90;99.90
75321;DHT22;68337;52.196;5.660;2023-11-21T15:04:43;8.80;99.90
75321;DHT22;68337;52.196;5.660;2023-11-21T15:07:10;8.80;99.90
75321;DHT22;68337;52.196;5.660;2023-11-21T15:09:39;8.90;99.90
75321;DHT22;68337;52.196;5.660;2023-11-21T15:12:07;8.80;99.90
75321;DHT22;68337;52.196;5.660;2023-11-21T15:17:11;8.80;99.90
75321;DHT22;68337;52.196;5.660;2023-11-21T15:19:41;8.80;99.90
75321;DHT22;68337;52.196;5.660;2023-11-21T15:22:07;8.70;99.90
75321;DHT22;68337;52.196;5.660;2023-11-21T15:24:33;8.60;99.90
75321;DHT22;68337;52.196;5.660;2023-11-21T15:26:59;8.50;99.90
75321;DHT22;68337;52.196;5.660;2023-11-21T15:29:25;8.50;99.90
75321;DHT22;68337;52.196;5.660;2023-11-21T15:31:51;8.40;99.90
75321;DHT22;68337;52.196;5.660;2023-11-21T15:34:22;8.40;99.90
75321;DHT22;68337;52.196;5.660;2023-11-21T15:36:48;8.30;99.90
75321;DHT22;68337;52.196;5.660;2023-11-21T15:39:18;8.30;99.90
75321;DHT22;68337;52.196;5.660;2023-11-21T15:41:44;8.30;99.90
75321;DHT22;68337;52.196;5.660;2023-11-21T15:44:10;8.20;99.90
75321;DHT22;68337;52.196;5.660;2023-11-21T15:46:37;8.20;99.90
75321;DHT22;68337;52.196;5.660;2023-11-21T15:49:04;8.10;99.90
75321;DHT22;68337;52.196;5.660;2023-11-21T15:51:43;8.10;99.90
75321;DHT22;68337;52.196;5.660;2023-11-21T15:54:12;8.00;99.90
75321;DHT22;68337;52.196;5.660;2023-11-21T15:56:38;7.90;99.90
75321;DHT22;68337;52.196;5.660;2023-11-21T15:59:04;7.90;99.90
75321;DHT22;68337;52.196;5.660;2023-11-21T16:01:32;7.80;99.90
75321;DHT22;68337;52.196;5.660;2023-11-21T16:03:59;7.80;99.90
75321;DHT22;68337;52.196;5.660;2023-11-21T16:06:27;7.70;99.90
75321;DHT22;68337;52.196;5.660;2023-11-21T16:08:53;7.70;99.90